KMWO/MWO METAR and TAF weather

Enter ICAO airport designator
Station Type Date Time Source
KMWO METAR 2020/09/21 06:35 UTC NOAA

KMWO 210635Z AUTO 00000KT 10SM CLR 07/06 A3042 RMK AO2 T00720058


Station Type Date Time Source
KMWO Decoded METAR 2020/09/21 06:35 UTC NOAA

Station name not available
Sep 21, 2020 - 02:35 AM EDT / 2020.09.21 0635 UTC
Wind: Calm:0
Visibility: 10 mile(s):0
Sky conditions: clear
Temperature: 45.0 F (7.2 C)
Dew Point: 42.4 F (5.8 C)
Relative Humidity: 90%
Pressure (altimeter): 30.42 in. Hg (1030 hPa)
ob: KMWO 210635Z AUTO 00000KT 10SM CLR 07/06 A3042 RMK AO2 T00720058
cycle: 6

Station Type Date Time Source
KMWO TAF UTC NOAA

Error!

Example: see airport list